Tortosa, Spain

6:53 AM CET on October 26, 2014 (GMT +0100)
L'Ametlla de Mar | Change Station
CLOSE
Current Station
Personal Weather Station
Location: L'Ametlla De Mar, TARRAGONA
Elevation: 210 ft
Nearby Weather Stations

Elev 210 ft 40.91 °N, 0.79 °E | Updated 3 minutes ago

Clear
Clear
59.4 °F
Feels Like 59.4 °F
N
0.0
Wind Variable Wind from NE
Gusts 0.0 mph

Today
High -- | Low -- °F
--% Chance of Precip.
Yesterday
High -- | Low -- °F
Precip. -- in
7:21 AM 6:02 PM
Waxing Crescent, 6% visible
Pressure 30.15 in
Visibility -9999.0 miles
Clouds
Dew Point 50 °F
Humidity 70%
Rainfall 0.00 in
Snow Depth Not available.
UV Not available.
Pollen Not available.
Air Quality Not available.
Flu Activity Not available.
METAR LERS 260530Z AUTO 03006KT CAVOK 14/11 Q1021

More Conditions Fewer Conditions

Pressure 30.15 in
Visibility -9999.0 miles
Clouds
Dew Point 50 °F
Humidity 70%
Rainfall 0.00 in
Snow Depth Not available.
UV Not available.
Pollen Not available.
Air Quality Not available.
Flu Activity Not available.
METAR LERS 260530Z AUTO 03006KT CAVOK 14/11 Q1021

More Conditions Fewer Conditions

10-Day Weather Forecast

Almanac

Astronomy

Oct. 26, 2014 Rise Set
Actual Time 7:21 AM CET 6:02 PM CET
Civil Twilight 6:53 AM CET 6:30 PM CET
Nautical Twilight 6:21 AM CET 7:02 PM CET
Astronomical Twilight 5:49 AM CET 7:34 PM CET
Moon 9:45 AM CET 8:00 PM CET
Length Of Visible Light 11h 36m
Length of Day
10h 40m
Tomorrow will be 2m 29s shorter.
Waxing Crescent, 6% of the Moon is Illuminated
Today
Waxing Crescent
Oct 30
First Quarter
Nov 6
Full
Nov 14
Last Quarter
Nov 22
New

Yesterday's Extremes

Country Highs Country Lows

Community

WunderPhotos

Upload Photos

1,765,112 photos uploaded!

Nearby

Snow Depth

Not available.

Earthquake Activity

City Distance Mag. Time & Date
No recent earthquake activity has been reported nearby.
Minimum magnitude displayed is 2.5.

Coastal Water Temperatures

Place Temperature
No Stations Reporting

Nearby Weather Stations